Terminal Aerodrome Forecast
Issued by NWS

Home | Current Version | Previous Version | Text Only | Print | Product List | Glossary On
Versions: 1 2 3 4 5 6 7 8 9 10 11 12 13 14 15 16 17 18 19 20 21 22 23 24 25 26 27 28 29 30 31 32 33 34 35 36 37 38 39 40 41 42 43 44 45 46 47 48 49 50
000
FTUS45 KGJT 030320 AAC
TAFEGE
TAF AMD
KEGE 030320Z 0303/0324 23012KT 2SM -SN BR BKN012 OVC020
      TEMPO 0303/0306 1SM -SN BR OVC009
     FM030600 27011KT 3SM -RASN BR SCT006 BKN015
     FM031200 25012KT 3SM -SN BR OVC015
     FM031900 27015G25KT P6SM VCSH SCT030 OVC050
      AMD LTD TO CLD VIS AND WIND 0306/0314=

USA.gov is the U.S. government's official web portal to all federal, state and local government web resources and services.